createdAt,value
2023-11-10T00:01:36.691Z,100012.13
2023-11-10T00:04:36.014Z,100002.44
2023-11-10T00:07:19.404Z,99999.84
2023-11-10T00:13:00.700Z,100015.81
2023-11-10T00:15:44.890Z,100007.81
2023-11-10T00:18:22.001Z,100008.69
2023-11-10T00:21:11.392Z,100013.09
2023-11-10T00:23:41.894Z,100014.88
2023-11-10T00:26:45.974Z,100008.75
2023-11-10T00:29:15.759Z,100002.59
2023-11-10T00:32:03.814Z,99995.41
2023-11-10T00:34:34.981Z,99992.66
2023-11-10T00:37:12.395Z,100001.41
2023-11-10T00:40:03.283Z,99997.84
2023-11-10T00:42:46.448Z,99994.31
2023-11-10T00:49:00.534Z,99990.72
2023-11-10T00:51:35.763Z,99988.97
2023-11-10T00:54:10.229Z,99988.94
2023-11-10T00:57:03.006Z,99989.84
2023-11-10T01:00:25.654Z,99980.22
2023-11-10T01:03:55.302Z,99975.81
2023-11-10T01:09:47.027Z,99988.19
2023-11-10T01:12:27.274Z,99987.28
2023-11-10T01:15:03.093Z,99981.19
2023-11-10T01:17:39.380Z,99973.25
2023-11-10T01:20:13.756Z,99961.84
2023-11-10T01:22:58.659Z,99967.97
2023-11-10T01:25:42.675Z,99975.88
2023-11-10T01:28:32.269Z,99971.44
2023-11-10T01:31:22.249Z,99961.81
2023-11-10T01:34:00.713Z,99959.06
2023-11-10T01:36:59.735Z,99951.16
2023-11-10T01:39:44.404Z,99944.94
2023-11-10T01:42:17.955Z,99947.50
2023-11-10T01:45:24.173Z,99944.81
2023-11-10T01:48:33.210Z,99938.56
2023-11-10T01:51:35.052Z,99939.34
2023-11-10T01:54:27.027Z,99934.00
2023-11-10T01:57:59.768Z,99933.19
2023-11-10T02:00:56.094Z,99931.38
2023-11-10T02:04:02.327Z,99930.53
2023-11-10T02:06:54.591Z,99938.41
2023-11-10T02:13:24.781Z,99937.41
2023-11-10T02:16:08.863Z,99935.66
2023-11-10T02:18:38.797Z,99946.19
2023-11-10T02:21:21.499Z,99943.47
2023-11-10T02:24:10.352Z,99935.47
2023-11-10T02:26:46.540Z,99925.66
2023-11-10T02:29:32.057Z,99926.44
2023-11-10T02:32:04.010Z,99932.66
2023-11-10T02:34:36.137Z,99931.78
2023-11-10T02:37:41.187Z,99932.63
2023-11-10T02:40:21.239Z,99927.25
2023-11-10T02:43:09.187Z,99929.91
2023-11-10T02:49:45.505Z,99928.16
2023-11-10T02:52:16.437Z,99931.69
2023-11-10T02:54:49.162Z,99929.94
2023-11-10T02:57:28.776Z,99929.91
2023-11-10T03:00:19.928Z,99924.63
2023-11-10T03:03:19.958Z,99919.41
2023-11-10T03:06:00.563Z,99914.22
2023-11-10T03:08:39.373Z,99918.66
2023-11-10T03:11:33.685Z,99920.56
2023-11-10T03:17:39.432Z,99915.50
2023-11-10T03:20:15.363Z,99912.94
2023-11-10T03:22:57.015Z,99912.94
2023-11-10T03:25:57.828Z,99909.53
2023-11-10T03:28:38.003Z,99899.97
2023-11-10T03:31:26.745Z,99898.22
2023-11-10T03:34:05.520Z,99899.19
2023-11-10T03:36:45.640Z,99894.84
2023-11-10T03:39:43.075Z,99891.31
2023-11-10T03:42:25.425Z,99900.16
2023-11-10T03:45:01.073Z,99892.22
2023-11-10T03:47:45.234Z,99894.03
2023-11-10T03:50:21.795Z,99886.97
2023-11-10T03:53:05.807Z,99886.94
2023-11-10T03:55:57.420Z,99881.75
2023-11-10T03:58:32.157Z,99888.81
2023-11-10T04:02:07.120Z,99888.91
2023-11-10T04:05:02.917Z,99879.25
2023-11-10T04:08:12.030Z,99889.88
2023-11-10T04:11:09.870Z,99886.28
2023-11-10T04:13:50.133Z,99889.88
2023-11-10T04:16:21.439Z,99890.78
2023-11-10T04:18:56.472Z,99894.34
2023-11-10T04:21:58.217Z,99890.78
2023-11-10T04:28:04.612Z,99887.25
2023-11-10T04:31:04.876Z,99889.06
2023-11-10T04:33:50.413Z,99891.72
2023-11-10T04:36:44.794Z,99883.78
2023-11-10T04:39:49.554Z,99893.50
2023-11-10T04:42:27.238Z,99893.47
2023-11-10T04:45:24.121Z,99893.41
2023-11-10T04:48:23.629Z,99900.53
2023-11-10T04:50:55.412Z,99897.78
2023-11-10T04:53:33.515Z,99899.59
2023-11-10T04:56:21.044Z,99903.97
2023-11-10T05:05:51.199Z,99891.56
2023-11-10T05:08:20.838Z,99892.50
2023-11-10T05:14:27.211Z,99895.13
2023-11-10T05:17:08.135Z,99896.91
2023-11-10T05:19:45.596Z,99895.16
2023-11-10T05:22:24.920Z,99895.16
2023-11-10T05:25:08.459Z,99889.06
2023-11-10T05:28:10.435Z,99894.41
2023-11-10T05:31:04.651Z,99885.72
2023-11-10T05:33:46.908Z,99889.34
2023-11-10T05:37:08.536Z,99892.06
2023-11-10T05:40:24.817Z,99884.22
2023-11-10T05:47:03.617Z,99887.88
2023-11-10T05:49:41.789Z,99878.22
2023-11-10T05:53:06.636Z,99882.59
2023-11-10T05:55:40.388Z,99886.19
2023-11-10T05:58:48.506Z,99890.63
2023-11-10T06:05:28.228Z,99899.56
2023-11-10T06:08:36.123Z,99896.09
2023-11-10T06:11:11.465Z,99894.41
2023-11-10T06:13:55.570Z,99885.69
2023-11-10T06:16:39.958Z,99886.66
2023-11-10T06:19:41.232Z,99891.06
2023-11-10T06:26:04.054Z,99897.22
2023-11-10T06:29:07.909Z,99894.69
2023-11-10T06:32:26.946Z,99906.13
2023-11-10T06:35:19.059Z,99913.28
2023-11-10T06:38:12.965Z,99910.69
2023-11-10T06:40:52.979Z,99917.75
2023-11-10T06:43:33.732Z,99922.16
2023-11-10T06:46:49.013Z,99916.97
2023-11-10T06:49:41.581Z,99920.44
2023-11-10T06:52:22.337Z,99915.00
2023-11-10T06:55:25.598Z,99915.00
2023-11-10T06:58:57.886Z,99916.72
2023-11-10T07:02:05.172Z,99920.19
2023-11-10T07:08:34.068Z,99917.47
2023-11-10T07:12:43.932Z,99915.72
2023-11-10T07:15:25.141Z,99912.22
2023-11-10T07:18:10.813Z,99914.88
2023-11-10T07:20:46.786Z,99912.19
2023-11-10T07:23:29.002Z,99909.47
2023-11-10T07:26:09.925Z,99915.59
2023-11-10T07:28:50.509Z,99919.06
2023-11-10T07:31:42.230Z,99920.81
2023-11-10T07:34:42.557Z,99923.34
2023-11-10T07:40:28.155Z,99921.41
2023-11-10T07:43:19.826Z,99909.94
2023-11-10T07:46:03.130Z,99902.84
2023-11-10T07:48:37.501Z,99906.28
2023-11-10T07:51:14.170Z,99908.72
2023-11-10T07:54:16.482Z,99910.38
2023-11-10T07:57:10.448Z,99912.84
2023-11-10T07:59:43.611Z,99891.00
2023-11-10T08:03:03.223Z,99921.38
2023-11-10T08:08:54.997Z,99921.97
2023-11-10T08:11:25.985Z,99921.91
2023-11-10T08:14:24.912Z,99921.84
2023-11-10T08:17:27.218Z,99930.34
2023-11-10T08:20:25.751Z,99925.78
2023-11-10T08:22:58.484Z,99921.28
2023-11-10T08:25:47.329Z,99925.59
2023-11-10T08:32:05.217Z,99921.22
2023-11-10T08:35:16.808Z,99931.63
2023-11-10T08:41:28.283Z,99932.00
2023-11-10T08:44:25.944Z,99933.47
2023-11-10T08:47:54.590Z,99931.72
2023-11-10T08:50:43.648Z,99938.66
2023-11-10T08:53:22.348Z,99929.78
2023-11-10T08:56:44.119Z,99931.56
2023-11-10T09:00:05.481Z,99926.00
2023-11-10T09:06:57.816Z,99917.16
2023-11-10T09:09:52.090Z,99919.47
2023-11-10T09:15:40.756Z,99913.34
2023-11-10T09:18:17.083Z,99920.97
2023-11-10T09:21:21.790Z,99919.72
2023-11-10T09:24:16.110Z,99913.53
2023-11-10T09:27:02.137Z,99909.69
2023-11-10T09:30:17.796Z,99915.97
2023-11-10T09:32:49.390Z,99910.69
2023-11-10T09:35:44.025Z,99903.81
2023-11-10T09:38:39.427Z,99901.97
2023-11-10T09:41:40.377Z,99894.88
2023-11-10T09:45:00.251Z,99891.84
2023-11-10T09:47:32.731Z,99890.75
2023-11-10T09:50:10.947Z,99888.78
2023-11-10T09:53:41.969Z,99887.69
2023-11-10T09:56:17.614Z,99903.97
2023-11-10T10:05:52.875Z,99902.97
2023-11-10T10:11:55.770Z,99888.00
2023-11-10T10:14:55.761Z,99890.81
2023-11-10T10:17:40.266Z,99884.59
2023-11-10T10:20:44.676Z,99887.13
2023-11-10T10:23:48.308Z,99888.03
2023-11-10T10:27:01.871Z,99888.06
2023-11-10T10:29:39.816Z,99892.44
2023-11-10T10:32:20.241Z,99889.78
2023-11-10T10:38:44.196Z,99886.81
2023-11-10T10:41:27.135Z,99890.50
2023-11-10T10:44:20.911Z,99885.13
2023-11-10T10:46:57.235Z,99893.00
2023-11-10T10:49:29.508Z,99885.19
2023-11-10T10:55:36.904Z,99877.63
2023-11-10T11:01:39.199Z,99875.41
2023-11-10T11:04:48.900Z,99881.72
2023-11-10T11:08:23.845Z,99869.34
2023-11-10T11:11:27.811Z,99878.06
2023-11-10T11:26:40.286Z,99873.00
2023-11-10T11:29:53.313Z,99867.25
2023-11-10T11:32:37.103Z,99876.78
2023-11-10T11:35:46.850Z,99867.06
2023-11-10T11:38:55.862Z,99867.56
2023-11-10T11:41:33.458Z,99868.91
2023-11-10T11:44:17.022Z,99862.25
2023-11-10T11:47:14.876Z,99865.91
2023-11-10T11:49:55.833Z,99853.94
2023-11-10T11:52:46.929Z,99854.81
2023-11-10T11:55:24.485Z,99848.41
2023-11-10T11:58:14.393Z,99857.13
2023-11-10T12:01:01.785Z,99846.34
2023-11-10T12:03:48.703Z,99853.31
2023-11-10T12:06:22.778Z,99850.38
2023-11-10T12:09:21.243Z,99858.59
2023-11-10T12:12:05.485Z,99851.63
2023-11-10T12:14:39.244Z,99855.28
2023-11-10T12:17:25.099Z,99846.41
2023-11-10T12:20:17.231Z,99846.63
2023-11-10T12:23:33.222Z,99847.50
2023-11-10T12:26:03.845Z,99851.84
2023-11-10T12:32:09.460Z,99858.41
2023-11-10T12:35:12.274Z,99858.44
2023-11-10T12:37:45.346Z,99852.31
2023-11-10T12:41:33.951Z,99848.81
2023-11-10T12:44:17.276Z,99858.59
2023-11-10T12:46:59.539Z,99849.78
2023-11-10T12:52:54.252Z,99856.03
2023-11-10T13:02:23.589Z,99849.13
2023-11-10T13:05:11.157Z,99846.53
2023-11-10T13:08:59.431Z,99846.63
2023-11-10T13:12:20.728Z,99850.19
2023-11-10T13:15:42.085Z,99858.25
2023-11-10T13:18:30.713Z,99852.03
2023-11-10T13:21:18.021Z,99865.31
2023-11-10T13:24:34.397Z,99856.53
2023-11-10T13:30:35.450Z,99866.41
2023-11-10T13:33:10.055Z,99856.75
2023-11-10T13:38:57.586Z,99856.75
2023-11-10T13:42:40.367Z,99846.13
2023-11-10T13:45:33.515Z,99856.75
2023-11-10T13:51:47.539Z,99861.28
2023-11-10T13:57:34.648Z,99863.13
2023-11-10T14:00:25.385Z,99867.63
2023-11-10T14:03:11.589Z,99872.09
2023-11-10T14:07:00.667Z,99868.56
2023-11-10T14:10:03.692Z,99875.69
2023-11-10T14:12:37.980Z,99875.81
2023-11-10T14:22:39.785Z,99882.16
2023-11-10T14:25:52.259Z,99880.38
2023-11-10T14:28:59.814Z,99877.72
2023-11-10T14:31:47.986Z,99882.13
2023-11-10T14:41:35.805Z,99887.56
2023-11-10T14:44:18.522Z,99887.69
2023-11-10T14:51:24.226Z,99894.97
2023-11-10T14:54:05.386Z,99891.59
2023-11-10T14:57:49.188Z,99891.72
2023-11-10T15:00:42.345Z,99902.50
2023-11-10T15:04:00.683Z,99893.84
2023-11-10T15:09:58.342Z,99895.66
2023-11-10T15:13:14.863Z,99904.63
2023-11-10T15:16:06.463Z,99903.75
2023-11-10T15:19:24.620Z,99908.22
2023-11-10T15:22:26.319Z,99920.66
2023-11-10T15:25:03.907Z,99918.00
2023-11-10T15:27:41.917Z,99918.03
2023-11-10T15:30:36.689Z,99915.44
2023-11-10T15:33:13.974Z,99917.25
2023-11-10T15:35:53.690Z,99923.44
2023-11-10T15:38:59.392Z,99924.38
2023-11-10T15:41:26.730Z,99927.97
2023-11-10T15:44:18.284Z,99920.91
2023-11-10T15:47:27.400Z,99925.31
2023-11-10T15:50:22.605Z,99924.50
2023-11-10T15:53:12.882Z,99922.66
2023-11-10T15:55:49.413Z,99926.19
2023-11-10T15:58:33.041Z,99928.84
2023-11-10T16:01:08.765Z,99923.59
2023-11-10T16:03:44.014Z,99924.50
2023-11-10T16:10:29.990Z,99920.16
2023-11-10T16:13:00.144Z,99930.75
2023-11-10T16:15:34.626Z,99925.44
2023-11-10T16:21:01.344Z,99932.50
2023-11-10T16:23:39.733Z,99930.72
2023-11-10T16:26:11.434Z,99934.25
2023-11-10T16:29:06.152Z,99933.38
2023-11-10T16:31:39.414Z,99923.78
2023-11-10T16:34:22.636Z,99933.50
2023-11-10T16:36:58.476Z,99924.69
2023-11-10T16:39:37.251Z,99933.53
2023-11-10T16:42:25.156Z,99930.91
2023-11-10T16:45:03.677Z,99927.38
2023-11-10T16:47:37.620Z,99927.44
2023-11-10T16:50:11.406Z,99930.19
2023-11-10T16:52:47.215Z,99924.94
2023-11-10T16:55:22.389Z,99926.78
2023-11-10T16:57:52.556Z,99917.97
2023-11-10T17:00:50.445Z,99924.22
2023-11-10T17:03:35.940Z,99931.34
2023-11-10T17:06:07.665Z,99935.88
2023-11-10T17:08:40.693Z,99936.00
2023-11-10T17:11:25.556Z,99937.03
2023-11-10T17:14:15.151Z,99933.56
2023-11-10T17:17:09.386Z,99932.69
2023-11-10T17:19:46.703Z,99934.56
2023-11-10T17:22:17.663Z,99928.38
2023-11-10T17:24:51.658Z,99930.13
2023-11-10T17:27:23.884Z,99929.31
2023-11-10T17:30:07.298Z,99932.91
2023-11-10T17:32:38.225Z,99927.72
2023-11-10T17:35:14.470Z,99930.47
2023-11-10T17:37:49.970Z,99934.13
2023-11-10T17:40:34.478Z,99923.63
2023-11-10T17:43:30.221Z,99924.63
2023-11-10T17:46:05.031Z,99930.16
2023-11-10T17:48:55.899Z,99930.38
2023-11-10T17:51:27.828Z,99924.38
2023-11-10T17:54:11.986Z,99920.88
2023-11-10T17:57:03.957Z,99926.41
2023-11-10T17:59:42.230Z,99921.25
2023-11-10T18:02:12.658Z,99920.59
2023-11-10T18:04:52.619Z,99918.91
2023-11-10T18:07:30.789Z,99920.75
2023-11-10T18:10:14.297Z,99919.06
2023-11-10T18:13:07.314Z,99868.47
2023-11-10T18:15:48.312Z,99918.31
2023-11-10T18:18:24.623Z,99919.28
2023-11-10T18:20:56.690Z,99927.22
2023-11-10T18:23:37.746Z,99924.75
2023-11-10T18:26:14.057Z,99927.44
2023-11-10T18:29:09.857Z,99925.66
2023-11-10T18:31:47.502Z,99926.59
2023-11-10T18:34:46.243Z,99928.34
2023-11-10T18:37:37.904Z,99935.38
2023-11-10T18:40:42.031Z,99930.06
2023-11-10T18:43:17.823Z,99929.16
2023-11-10T18:46:15.251Z,99926.53
2023-11-10T18:49:36.955Z,99923.88
2023-11-10T18:55:24.857Z,99919.25
2023-11-10T19:01:31.342Z,99910.41
2023-11-10T19:04:08.102Z,99908.59
2023-11-10T19:09:48.441Z,99908.59
2023-11-10T19:12:31.071Z,99913.03
2023-11-10T19:15:06.645Z,99914.81
2023-11-10T19:17:46.135Z,99911.38
2023-11-10T19:20:18.005Z,99907.91
2023-11-10T19:22:49.560Z,99918.53
2023-11-10T19:25:21.997Z,99909.66
2023-11-10T19:27:55.222Z,99905.19
2023-11-10T19:30:36.369Z,99909.50
2023-11-10T19:33:13.473Z,99913.06
2023-11-10T19:35:55.030Z,99914.00
2023-11-10T19:38:41.627Z,99920.22
2023-11-10T19:41:22.467Z,99925.47
2023-11-10T19:44:09.963Z,99924.53
2023-11-10T19:46:44.945Z,99916.63
2023-11-10T19:49:20.734Z,99918.38
2023-11-10T19:57:06.005Z,99925.41
2023-11-10T19:59:40.306Z,99932.44
2023-11-10T20:02:20.889Z,99930.72
2023-11-10T20:04:59.458Z,99933.44
2023-11-10T20:07:35.583Z,99937.88
2023-11-10T20:10:11.020Z,99929.97
2023-11-10T20:12:55.269Z,99930.91
2023-11-10T20:15:31.537Z,99931.72
2023-11-10T20:18:12.456Z,99935.28
2023-11-10T20:20:47.163Z,99934.50
2023-11-10T20:23:18.412Z,99930.91
2023-11-10T20:25:54.941Z,99935.31
2023-11-10T20:28:25.959Z,99934.50
2023-11-10T20:31:08.076Z,99933.69
2023-11-10T20:33:49.199Z,99928.47
2023-11-10T20:36:32.040Z,99932.91
2023-11-10T20:39:04.839Z,99941.84
2023-11-10T20:41:43.740Z,99949.78
2023-11-10T20:44:23.466Z,99941.91
2023-11-10T20:47:03.588Z,99936.47
2023-11-10T20:49:33.884Z,99934.53
2023-11-10T20:52:13.228Z,99934.56
2023-11-10T20:54:52.199Z,99929.25
2023-11-10T20:57:28.937Z,99927.59
2023-11-10T21:00:01.695Z,99916.28
2023-11-10T21:02:35.520Z,99918.13
2023-11-10T21:05:11.564Z,99919.09
2023-11-10T21:08:00.763Z,99920.03
2023-11-10T21:10:32.078Z,99923.56
2023-11-10T21:13:12.258Z,99916.56
2023-11-10T21:19:03.310Z,99920.97
2023-11-10T21:21:44.302Z,99913.25
2023-11-10T21:24:43.353Z,99911.53
2023-11-10T21:27:20.696Z,99917.72
2023-11-10T21:29:54.454Z,99914.28
2023-11-10T21:32:33.549Z,99909.03
2023-11-10T21:35:19.074Z,99906.50
2023-11-10T21:37:52.661Z,99922.28
2023-11-10T21:40:25.562Z,99910.91
2023-11-10T21:45:50.197Z,99895.13
2023-11-10T21:48:31.543Z,99899.56
2023-11-10T21:54:06.650Z,99896.03
2023-11-10T21:56:45.716Z,99899.59
2023-11-10T21:59:18.157Z,99894.34
2023-11-10T22:01:59.525Z,99888.22
2023-11-10T22:04:48.997Z,99898.72
2023-11-10T22:07:37.563Z,99894.38
2023-11-10T22:10:12.476Z,99898.75
2023-11-10T22:13:10.384Z,99876.00
2023-11-10T22:15:53.366Z,99900.50
2023-11-10T22:18:27.796Z,99904.03
2023-11-10T22:21:10.404Z,99904.00
2023-11-10T22:23:47.656Z,99911.00
2023-11-10T22:26:22.489Z,99911.91
2023-11-10T22:29:14.232Z,99913.66
2023-11-10T22:31:44.457Z,99912.78
2023-11-10T22:34:22.756Z,99915.38
2023-11-10T22:36:57.079Z,99920.66
2023-11-10T22:39:27.004Z,99920.66
2023-11-10T22:42:19.400Z,99930.28
2023-11-10T22:45:06.402Z,99922.38
2023-11-10T22:47:41.278Z,99916.28
2023-11-10T22:50:15.033Z,99920.63
2023-11-10T22:52:46.469Z,99926.78
2023-11-10T22:55:43.232Z,99924.13
2023-11-10T22:58:16.909Z,99926.78
2023-11-10T23:01:02.957Z,99916.28
2023-11-10T23:03:41.269Z,99922.38
2023-11-10T23:06:15.827Z,99925.00
2023-11-10T23:08:54.771Z,99924.13
2023-11-10T23:11:46.225Z,99930.25
2023-11-10T23:14:23.376Z,99928.47
2023-11-10T23:20:37.056Z,99920.59
2023-11-10T23:23:18.228Z,99917.13
2023-11-10T23:25:51.664Z,99920.66
2023-11-10T23:28:24.366Z,99923.19
2023-11-10T23:30:56.058Z,99920.56
2023-11-10T23:33:38.956Z,99915.34
2023-11-10T23:36:11.838Z,99917.97
2023-11-10T23:38:46.921Z,99919.59
2023-11-10T23:41:29.590Z,99923.97
2023-11-10T23:44:40.608Z,99920.47
2023-11-10T23:47:16.489Z,99923.03
2023-11-10T23:49:59.540Z,99925.69
2023-11-10T23:52:35.637Z,99931.72
2023-11-10T23:55:32.241Z,99929.91
2023-11-10T23:58:13.405Z,99919.41
